CheckWX is a tool to help pilots better visualize weather data.  It is not intended as a substitute for an official pre-flight weather briefing.

02:48:57 UTC

KPHX METAR
Phoenix Sky Harbor International Airport
Phoenix, Arizona, USA
Current

58 mins ago

KPHX 230151Z 36007KT 10SM FEW090 FEW250 34/07 A2983 RMK AO2 SLP083 T03390072 $
Observed
Sep-23 @ 01:51 UTC
Wind
  • 360° at 7 KTS
Visibility
10 SM
Flight Rules
VFR
Cloud Levels
  • Few at 9,000' AGL
  • Few at 25,000' AGL
Temperature
34°C / 93°F
Dewpoint
C / 45°F
Humidity
19%
Altimeter
29.83" Hg
Pressure
1010.12 hPa
Previous

2 hours ago

KPHX 230051Z 32007KT 10SM FEW090 FEW250 35/06 A2983 RMK AO2 SLP084 T03500056 $
Observed
Sep-23 @ 00:51 UTC
Wind
  • 320° at 7 KTS
Visibility
10 SM
Flight Rules
VFR
Cloud Levels
  • Few at 9,000' AGL
  • Few at 25,000' AGL
Temperature
35°C / 95°F
Dewpoint
C / 43°F
Humidity
16%
Altimeter
29.83" Hg
Pressure
1010.12 hPa
Previous

3 hours ago

KPHX 222351Z 01004KT 10SM FEW100 FEW250 36/04 A2984 RMK AO2 SLP085 T03560044 10367 20317 56018 $
Observed
Sep-22 @ 23:51 UTC
Wind
  • 010° at 4 KTS
Visibility
10 SM
Flight Rules
VFR
Cloud Levels
  • Few at 10,000' AGL
  • Few at 25,000' AGL
Temperature
36°C / 97°F
Dewpoint
C / 39°F
Humidity
13%
Altimeter
29.84" Hg
Pressure
1010.52 hPa